Time;durP1;ratioP1;P1;durP2;ratioP2;P2;SDS_P1;SDS_P2;PMS_P1;PMS_P2;Temp;Humidity;BMP_temperature;BMP_pressure;BME280_temperature;BME280_humidity;BME280_pressure;Samples;Min_cycle;Max_cycle;Signal;HPM_P1;HPM_P2
2023/05/29 00:00:22;;;;;;;3.08;2.80;;;20.50;66.10;;;;;;5014211;28;20188;-67
2023/05/29 00:02:50;;;;;;;3.20;2.90;;;20.50;66.10;;;;;;5013859;28;20188;-67
2023/05/29 00:05:17;;;;;;;3.03;2.80;;;20.50;66.10;;;;;;5030258;28;20656;-67
2023/05/29 00:07:43;;;;;;;3.08;2.78;;;20.50;66.20;;;;;;5013507;28;20231;-67
2023/05/29 00:10:11;;;;;;;2.70;2.50;;;20.50;66.30;;;;;;4995644;28;20216;-67
2023/05/29 00:12:38;;;;;;;3.30;3.00;;;20.40;66.10;;;;;;4997418;28;20188;-67
2023/05/29 00:15:05;;;;;;;3.13;2.58;;;20.50;66.30;;;;;;4997706;28;20198;-68
2023/05/29 00:17:34;;;;;;;2.90;2.70;;;20.40;66.20;;;;;;4996154;28;20228;-66
2023/05/29 00:20:11;;;;;;;3.22;2.92;;;20.40;66.20;;;;;;5011902;28;20191;-68
2023/05/29 00:22:37;;;;;;;3.40;3.10;;;20.50;66.30;;;;;;5013606;28;20184;-68
2023/05/29 00:25:07;;;;;;;3.30;3.00;;;20.40;66.20;;;;;;5013378;28;20192;-67
2023/05/29 00:27:34;;;;;;;3.28;2.90;;;20.40;66.20;;;;;;4997110;28;20204;-66
2023/05/29 00:30:01;;;;;;;3.88;3.20;;;20.40;66.20;;;;;;4993569;28;20185;-68
2023/05/29 00:32:29;;;;;;;3.17;2.88;;;20.40;66.20;;;;;;4996912;28;20188;-67
2023/05/29 00:34:55;;;;;;;3.63;3.33;;;20.40;66.20;;;;;;5013354;28;20195;-67
2023/05/29 00:37:21;;;;;;;3.20;2.90;;;20.40;66.10;;;;;;5029380;28;20223;-67
2023/05/29 00:39:49;;;;;;;3.20;2.90;;;20.40;66.10;;;;;;5024741;28;20204;-67
2023/05/29 00:42:15;;;;;;;3.20;2.85;;;20.40;66.20;;;;;;5018463;28;20207;-67
2023/05/29 00:44:41;;;;;;;3.08;2.78;;;20.40;66.10;;;;;;4993479;28;20352;-67
2023/05/29 00:47:07;;;;;;;3.05;2.83;;;20.40;66.10;;;;;;5000716;28;20346;-67
2023/05/29 00:49:36;;;;;;;2.90;2.70;;;20.40;66.10;;;;;;5012860;28;20208;-67
2023/05/29 00:52:03;;;;;;;2.72;2.53;;;20.40;66.20;;;;;;4996660;28;20243;-68
2023/05/29 00:54:30;;;;;;;2.97;2.67;;;20.40;66.20;;;;;;4996581;28;20572;-68
2023/05/29 00:57:01;;;;;;;3.40;3.10;;;20.40;66.10;;;;;;4996508;28;20215;-67
2023/05/29 00:59:32;;;;;;;2.85;2.65;;;20.40;66.20;;;;;;4995023;28;20181;-68
2023/05/29 01:02:02;;;;;;;3.25;3.03;;;20.40;66.20;;;;;;4993177;28;20205;-67
2023/05/29 01:04:28;;;;;;;3.03;2.83;;;20.40;66.20;;;;;;4995126;28;20280;-68
2023/05/29 01:06:55;;;;;;;3.15;2.92;;;20.40;66.20;;;;;;5012922;28;20239;-68
2023/05/29 01:09:21;;;;;;;3.95;3.10;;;20.40;66.20;;;;;;4996056;28;20203;-67
2023/05/29 01:12:32;;;;;;;3.30;3.00;;;20.40;66.20;;;;;;4996144;28;20196;-68
2023/05/29 01:15:32;;;;;;;3.25;2.95;;;20.40;66.20;;;;;;4990904;28;20194;-68
2023/05/29 01:18:51;;;;;;;3.38;3.08;;;20.40;66.00;;;;;;5028705;28;20223;-67
2023/05/29 01:21:59;;;;;;;2.55;2.35;;;20.40;66.20;;;;;;4996248;28;20228;-65
2023/05/29 01:25:04;;;;;;;3.00;2.78;;;20.40;66.20;;;;;;4965783;28;20203;-67
2023/05/29 01:27:32;;;;;;;3.38;3.08;;;20.40;66.20;;;;;;5011655;28;20604;-67
2023/05/29 01:30:02;;;;;;;3.58;2.80;;;20.30;66.00;;;;;;5012414;28;20199;-68
2023/05/29 01:32:30;;;;;;;3.08;2.78;;;20.40;66.10;;;;;;5011694;28;20542;-68
2023/05/29 01:34:55;;;;;;;3.22;2.92;;;20.30;66.00;;;;;;4995819;28;20280;-67
2023/05/29 01:37:21;;;;;;;3.13;2.83;;;20.40;66.10;;;;;;4995502;28;20310;-67
2023/05/29 01:39:47;;;;;;;3.42;3.10;;;20.40;66.20;;;;;;5028342;28;20210;-67
2023/05/29 01:42:14;;;;;;;3.17;2.88;;;20.40;66.00;;;;;;5011951;28;20179;-68
2023/05/29 01:44:40;;;;;;;3.15;2.88;;;20.30;65.90;;;;;;4992266;28;20193;-67
2023/05/29 01:47:06;;;;;;;2.67;2.47;;;20.30;66.00;;;;;;4995853;28;20220;-68
2023/05/29 01:49:37;;;;;;;3.15;2.85;;;20.40;66.10;;;;;;4994416;28;20579;-68
2023/05/29 01:52:03;;;;;;;3.25;2.95;;;20.40;66.10;;;;;;5028151;28;20189;-67
2023/05/29 01:54:28;;;;;;;2.97;2.70;;;20.30;65.90;;;;;;5012038;28;20203;-67
2023/05/29 01:56:55;;;;;;;2.97;2.75;;;20.30;65.90;;;;;;5011633;28;20212;-67
2023/05/29 01:59:22;;;;;;;2.75;2.55;;;20.30;66.00;;;;;;4995206;28;20291;-66
2023/05/29 02:01:48;;;;;;;3.20;2.90;;;20.30;65.90;;;;;;5011521;28;20192;-67
2023/05/29 02:04:14;;;;;;;2.80;2.55;;;20.30;65.90;;;;;;5028446;28;20195;-67
2023/05/29 02:06:41;;;;;;;2.88;2.67;;;20.40;66.00;;;;;;5011361;28;20211;-67
2023/05/29 02:09:06;;;;;;;3.38;3.08;;;20.30;65.90;;;;;;4991787;28;20200;-67
2023/05/29 02:11:32;;;;;;;3.42;3.10;;;20.40;66.00;;;;;;4993478;28;20183;-67
2023/05/29 02:13:58;;;;;;;3.28;2.70;;;20.40;66.10;;;;;;4992170;28;20200;-67
2023/05/29 02:16:27;;;;;;;2.72;2.53;;;20.30;65.90;;;;;;5017021;28;20204;-66
2023/05/29 02:18:53;;;;;;;2.70;2.50;;;20.30;66.00;;;;;;5011257;28;20672;-67
2023/05/29 02:21:19;;;;;;;2.88;2.67;;;20.30;65.90;;;;;;4995038;28;20188;-67
2023/05/29 02:23:44;;;;;;;2.95;2.70;;;20.30;66.00;;;;;;5011221;28;20184;-67
2023/05/29 02:26:14;;;;;;;2.90;2.70;;;20.30;66.00;;;;;;5012649;28;20196;-67
2023/05/29 02:28:40;;;;;;;2.60;2.40;;;20.30;66.00;;;;;;5002833;28;20255;-67
2023/05/29 02:31:06;;;;;;;3.22;2.92;;;20.30;65.90;;;;;;5011126;28;20245;-67
2023/05/29 02:33:31;;;;;;;2.95;2.60;;;20.30;65.90;;;;;;5011212;28;20188;-66
2023/05/29 02:35:57;;;;;;;2.83;2.63;;;20.30;65.90;;;;;;5019476;28;20208;-67
2023/05/29 02:38:23;;;;;;;3.05;2.58;;;20.30;65.80;;;;;;5012650;28;20207;-67
2023/05/29 02:40:49;;;;;;;2.88;2.45;;;20.30;65.90;;;;;;5011398;28;20180;-67
2023/05/29 02:43:15;;;;;;;2.80;2.60;;;20.30;66.50;;;;;;5010454;28;20544;-67
2023/05/29 02:45:40;;;;;;;2.80;2.53;;;20.30;65.80;;;;;;5011085;28;20191;-67
2023/05/29 02:48:07;;;;;;;3.38;3.08;;;20.30;65.90;;;;;;4994861;28;20290;-67
2023/05/29 02:50:33;;;;;;;2.72;2.53;;;20.30;65.80;;;;;;5010948;28;20199;-67
2023/05/29 02:52:59;;;;;;;3.08;2.80;;;20.30;65.70;;;;;;4994731;28;20188;-67
2023/05/29 02:55:25;;;;;;;3.22;2.92;;;20.30;65.80;;;;;;4992119;28;20324;-67
2023/05/29 02:57:52;;;;;;;2.45;2.25;;;20.30;65.80;;;;;;4994528;28;20267;-67
2023/05/29 03:00:20;;;;;;;2.50;2.30;;;20.30;65.80;;;;;;5011041;28;20184;-67
2023/05/29 03:02:46;;;;;;;2.40;2.13;;;20.30;65.80;;;;;;5002931;28;20196;-67
2023/05/29 03:05:12;;;;;;;3.22;2.90;;;20.30;65.80;;;;;;5011327;28;20198;-67
2023/05/29 03:07:38;;;;;;;2.63;2.42;;;20.30;65.90;;;;;;5010626;28;20279;-66
2023/05/29 03:10:04;;;;;;;2.60;2.40;;;20.30;66.20;;;;;;5021403;28;20199;-67
2023/05/29 03:12:30;;;;;;;3.40;2.47;;;20.30;65.80;;;;;;5024793;28;20291;-67
2023/05/29 03:14:56;;;;;;;2.55;2.35;;;20.30;65.90;;;;;;5010971;28;20187;-67
2023/05/29 03:17:22;;;;;;;3.22;2.78;;;20.30;65.80;;;;;;5010656;28;20703;-67
2023/05/29 03:19:47;;;;;;;3.30;2.60;;;20.30;65.80;;;;;;5010963;28;20216;-67
2023/05/29 03:22:13;;;;;;;2.88;2.63;;;20.30;65.80;;;;;;4991636;28;20191;-66
2023/05/29 03:24:41;;;;;;;2.80;2.45;;;20.30;65.80;;;;;;4993718;28;20207;-67
2023/05/29 03:27:07;;;;;;;2.72;2.53;;;20.30;65.90;;;;;;4994423;28;20212;-66
2023/05/29 03:29:34;;;;;;;2.80;2.60;;;20.30;65.90;;;;;;4992760;28;20604;-67
2023/05/29 03:32:02;;;;;;;2.50;2.30;;;20.30;65.90;;;;;;5005643;28;20639;-67
2023/05/29 03:34:31;;;;;;;2.88;2.58;;;20.30;65.80;;;;;;5024633;28;20587;-67
2023/05/29 03:36:58;;;;;;;2.70;2.50;;;20.30;65.80;;;;;;5026892;28;20223;-67
2023/05/29 03:39:26;;;;;;;2.92;2.63;;;20.30;65.80;;;;;;4994391;28;20185;-66
2023/05/29 03:41:52;;;;;;;3.15;2.60;;;20.30;65.70;;;;;;5010977;28;20195;-67
2023/05/29 03:44:18;;;;;;;2.42;2.22;;;20.30;65.70;;;;;;5027457;28;20219;-67
2023/05/29 03:46:44;;;;;;;2.70;2.50;;;20.30;65.80;;;;;;5026774;28;20208;-66
2023/05/29 03:49:11;;;;;;;2.60;2.40;;;20.20;65.70;;;;;;4990909;28;20197;-66
2023/05/29 03:51:37;;;;;;;2.63;2.42;;;20.30;65.70;;;;;;4993045;28;20279;-67
2023/05/29 03:54:04;;;;;;;2.95;2.65;;;20.30;65.80;;;;;;4991680;28;20203;-66
2023/05/29 03:56:30;;;;;;;2.70;2.50;;;20.20;65.70;;;;;;4997487;28;20216;-67
2023/05/29 03:58:56;;;;;;;2.80;2.60;;;20.30;65.80;;;;;;5013746;28;20208;-67
2023/05/29 04:01:21;;;;;;;2.85;2.65;;;20.20;65.70;;;;;;4994481;28;20224;-67
2023/05/29 04:03:47;;;;;;;3.00;2.70;;;20.30;65.80;;;;;;4997465;28;20195;-67
2023/05/29 04:06:14;;;;;;;3.05;2.80;;;20.30;65.80;;;;;;4994140;28;20193;-67
2023/05/29 04:08:39;;;;;;;2.97;2.60;;;20.20;65.80;;;;;;5012377;28;20203;-67
2023/05/29 04:11:05;;;;;;;2.08;1.98;;;20.20;65.80;;;;;;4997174;28;20184;-67
2023/05/29 04:13:31;;;;;;;2.80;2.53;;;20.20;65.70;;;;;;4997227;28;20231;-67
2023/05/29 04:15:57;;;;;;;2.45;2.25;;;20.30;65.80;;;;;;5014044;28;20299;-67
2023/05/29 04:18:23;;;;;;;2.60;2.40;;;20.30;66.60;;;;;;4997218;28;20265;-67
2023/05/29 04:20:49;;;;;;;3.17;2.80;;;20.20;65.70;;;;;;5022062;28;20188;-67
2023/05/29 04:23:16;;;;;;;2.88;2.67;;;20.20;65.70;;;;;;5013609;28;20210;-67
2023/05/29 04:25:43;;;;;;;2.75;2.42;;;20.20;65.70;;;;;;5013386;28;20188;-67
2023/05/29 04:28:10;;;;;;;2.45;2.25;;;20.20;65.60;;;;;;5013210;28;20638;-67
2023/05/29 04:30:36;;;;;;;2.40;2.20;;;20.30;65.80;;;;;;5013202;28;20195;-67
2023/05/29 04:33:03;;;;;;;2.65;2.45;;;20.20;65.70;;;;;;5021897;28;20191;-67
2023/05/29 04:35:29;;;;;;;3.00;2.80;;;20.20;65.50;;;;;;4996868;28;20188;-67
2023/05/29 04:37:58;;;;;;;2.78;2.58;;;20.20;65.60;;;;;;4993458;28;20212;-66
2023/05/29 04:40:31;;;;;;;2.85;2.60;;;20.20;65.60;;;;;;5002800;28;20219;-67
2023/05/29 04:43:00;;;;;;;2.63;2.42;;;20.20;65.60;;;;;;4993656;28;20228;-67
2023/05/29 04:45:27;;;;;;;2.53;2.28;;;20.20;65.50;;;;;;5010138;28;20192;-67
2023/05/29 04:47:55;;;;;;;2.40;2.17;;;20.20;65.60;;;;;;5012478;28;20214;-66
2023/05/29 04:50:23;;;;;;;2.60;2.40;;;20.20;65.60;;;;;;4996731;28;20553;-67
2023/05/29 04:52:49;;;;;;;2.95;2.60;;;20.20;65.60;;;;;;4996646;28;20182;-67
2023/05/29 04:55:16;;;;;;;2.80;2.60;;;20.20;65.60;;;;;;5012969;28;20188;-68
2023/05/29 04:57:42;;;;;;;2.40;2.20;;;20.20;65.70;;;;;;4996348;28;20224;-67
2023/05/29 05:00:14;;;;;;;2.70;2.50;;;20.20;65.70;;;;;;5013065;28;20188;-67
2023/05/29 05:02:43;;;;;;;2.80;2.60;;;20.20;65.70;;;;;;4995030;28;20197;-68
2023/05/29 05:05:09;;;;;;;2.70;2.50;;;20.20;65.70;;;;;;4996130;28;20180;-67
2023/05/29 05:07:35;;;;;;;2.90;2.70;;;20.20;65.70;;;;;;4995440;28;20592;-67
2023/05/29 05:10:02;;;;;;;3.00;2.60;;;20.20;65.70;;;;;;5012900;28;20194;-67
2023/05/29 05:12:28;;;;;;;2.70;2.50;;;20.20;65.70;;;;;;5012212;28;20223;-67
2023/05/29 05:14:54;;;;;;;2.83;2.53;;;20.20;65.70;;;;;;4996247;28;20208;-66
2023/05/29 05:17:20;;;;;;;2.60;2.40;;;20.20;65.60;;;;;;5012569;28;20218;-67
2023/05/29 05:19:46;;;;;;;3.13;2.88;;;20.20;65.80;;;;;;5028747;28;20188;-67
2023/05/29 05:22:11;;;;;;;2.58;2.38;;;20.20;65.70;;;;;;4992780;28;20235;-67
2023/05/29 05:24:37;;;;;;;3.10;2.80;;;20.20;65.60;;;;;;4994191;28;20203;-67
2023/05/29 05:27:05;;;;;;;2.83;2.55;;;20.20;65.60;;;;;;5012179;28;20215;-66
2023/05/29 05:29:31;;;;;;;2.80;2.60;;;20.20;65.50;;;;;;5012025;28;20192;-66
2023/05/29 05:31:57;;;;;;;2.88;2.60;;;20.20;65.70;;;;;;4992717;28;20188;-67
2023/05/29 05:34:23;;;;;;;2.70;2.50;;;20.20;65.60;;;;;;5008155;28;20192;-67
2023/05/29 05:36:49;;;;;;;2.50;2.30;;;20.20;65.70;;;;;;5028373;28;20235;-67
2023/05/29 05:39:15;;;;;;;2.70;2.50;;;20.20;65.70;;;;;;5020260;28;20188;-66
2023/05/29 05:41:44;;;;;;;2.50;2.30;;;20.20;65.60;;;;;;4995941;28;20719;-67
2023/05/29 05:44:13;;;;;;;2.65;2.35;;;20.20;65.70;;;;;;4996469;28;20180;-67
2023/05/29 05:46:59;;;;;;;2.63;2.42;;;20.20;65.70;;;;;;5025632;28;20297;-66
2023/05/29 05:49:25;;;;;;;2.60;2.40;;;20.20;65.70;;;;;;4992147;28;20268;-67
2023/05/29 05:51:51;;;;;;;2.20;2.00;;;20.20;65.70;;;;;;4994999;28;20187;-67
2023/05/29 05:54:17;;;;;;;2.65;2.45;;;20.20;65.80;;;;;;5011878;28;20211;-67
2023/05/29 05:56:43;;;;;;;3.03;2.72;;;20.20;65.70;;;;;;5011620;28;20258;-67
2023/05/29 05:59:13;;;;;;;3.33;2.60;;;20.20;65.80;;;;;;5011663;28;20242;-67
2023/05/29 06:01:40;;;;;;;3.05;2.58;;;20.20;65.60;;;;;;5011620;28;20196;-67
2023/05/29 06:04:07;;;;;;;2.63;2.42;;;20.20;65.70;;;;;;5028119;28;20180;-67
2023/05/29 06:06:33;;;;;;;2.55;2.35;;;20.20;65.70;;;;;;5027521;28;20299;-67
2023/05/29 06:08:59;;;;;;;3.15;2.88;;;20.20;65.60;;;;;;4994604;28;20191;-67
2023/05/29 06:11:27;;;;;;;2.67;2.47;;;20.20;65.70;;;;;;4994812;28;20203;-68
2023/05/29 06:13:53;;;;;;;2.83;2.50;;;20.20;65.60;;;;;;5011418;28;20648;-67
2023/05/29 06:16:23;;;;;;;2.80;2.60;;;20.20;65.60;;;;;;4995573;28;20236;-68
2023/05/29 06:18:49;;;;;;;2.40;2.20;;;20.20;65.60;;;;;;5010963;28;20223;-67
2023/05/29 06:21:17;;;;;;;2.47;2.20;;;20.20;65.70;;;;;;5011459;28;20271;-67
2023/05/29 06:23:50;;;;;;;2.42;2.22;;;20.20;65.60;;;;;;5027870;28;20184;-68
2023/05/29 06:26:16;;;;;;;2.50;2.30;;;20.20;65.80;;;;;;4995393;28;20191;-67
2023/05/29 06:28:42;;;;;;;2.60;2.40;;;20.20;65.70;;;;;;4995143;28;20188;-67
2023/05/29 06:31:08;;;;;;;2.33;2.13;;;20.20;65.70;;;;;;5028079;28;20236;-68
2023/05/29 06:33:37;;;;;;;2.40;2.20;;;20.20;65.70;;;;;;5019578;28;20211;-66
2023/05/29 06:36:05;;;;;;;2.60;2.40;;;20.20;65.80;;;;;;5011190;28;20216;-67
2023/05/29 06:38:31;;;;;;;2.63;2.42;;;20.20;65.80;;;;;;5010937;28;20242;-68
2023/05/29 06:40:57;;;;;;;2.50;2.30;;;20.20;65.80;;;;;;4994748;28;20215;-67
2023/05/29 06:43:23;;;;;;;2.72;2.42;;;20.20;65.80;;;;;;4991551;28;20223;-67
2023/05/29 06:45:51;;;;;;;4.30;2.42;;;20.20;65.80;;;;;;4993877;28;20193;-67
2023/05/29 06:48:17;;;;;;;2.90;2.70;;;20.20;65.80;;;;;;5010832;28;20244;-67
2023/05/29 06:50:47;;;;;;;2.50;2.30;;;20.20;65.70;;;;;;5019769;28;20332;-66
2023/05/29 06:53:36;;;;;;;2.90;2.58;;;20.20;65.80;;;;;;4995715;28;20598;-67
2023/05/29 06:56:01;;;;;;;3.00;2.70;;;20.20;65.70;;;;;;4991505;28;20216;-67
2023/05/29 06:58:30;;;;;;;2.38;2.13;;;20.20;65.80;;;;;;5006835;28;20207;-67
2023/05/29 07:00:57;;;;;;;2.72;2.53;;;20.20;65.70;;;;;;5010847;28;20201;-68
2023/05/29 07:03:29;;;;;;;2.83;2.63;;;20.20;65.80;;;;;;4991476;28;20189;-68
2023/05/29 07:05:55;;;;;;;2.75;2.53;;;20.20;65.80;;;;;;5010251;28;20255;-67
2023/05/29 07:08:21;;;;;;;2.20;2.10;;;20.20;65.80;;;;;;5010585;28;20303;-68
2023/05/29 07:10:48;;;;;;;2.80;2.60;;;20.20;65.90;;;;;;5010481;28;20575;-66
2023/05/29 07:13:17;;;;;;;2.50;2.30;;;20.20;65.80;;;;;;4994594;28;20188;-68
2023/05/29 07:15:44;;;;;;;2.83;2.33;;;20.20;65.80;;;;;;5010706;28;20199;-68
2023/05/29 07:18:12;;;;;;;2.72;2.53;;;20.20;65.90;;;;;;5010589;28;20273;-68
2023/05/29 07:20:38;;;;;;;2.90;2.70;;;20.20;65.80;;;;;;5011076;28;20184;-68
2023/05/29 07:23:04;;;;;;;2.58;2.38;;;20.20;65.80;;;;;;5010811;28;20209;-68
2023/05/29 07:25:32;;;;;;;2.67;2.40;;;20.20;65.90;;;;;;5010795;28;20195;-67
2023/05/29 07:27:58;;;;;;;2.90;2.70;;;20.20;65.90;;;;;;4994495;28;20231;-66
2023/05/29 07:30:24;;;;;;;2.72;2.53;;;20.20;65.90;;;;;;4997566;28;20208;-67
2023/05/29 07:32:51;;;;;;;2.85;2.65;;;20.20;65.70;;;;;;4998108;28;20192;-67
2023/05/29 07:35:16;;;;;;;3.13;2.83;;;20.20;65.70;;;;;;5014509;28;20180;-67
2023/05/29 07:37:43;;;;;;;2.65;2.45;;;20.20;65.70;;;;;;5014414;28;20223;-67
2023/05/29 07:40:12;;;;;;;2.63;2.42;;;20.20;65.70;;;;;;5014496;28;20188;-68
2023/05/29 07:42:56;;;;;;;2.90;2.70;;;20.20;65.60;;;;;;5011550;28;20214;-68
2023/05/29 07:45:25;;;;;;;2.75;2.50;;;20.20;65.80;;;;;;4994725;28;20195;-67
2023/05/29 07:47:51;;;;;;;2.60;2.40;;;20.20;65.70;;;;;;5012925;28;20675;-68
2023/05/29 07:50:17;;;;;;;2.67;2.47;;;20.20;65.90;;;;;;5014359;28;20192;-67
2023/05/29 07:52:44;;;;;;;2.60;2.40;;;20.20;65.90;;;;;;4997684;28;20184;-68
2023/05/29 07:55:10;;;;;;;2.50;2.25;;;20.20;65.90;;;;;;4997872;28;20198;-68
2023/05/29 07:57:37;;;;;;;2.67;2.47;;;20.20;65.90;;;;;;4994140;28;20248;-67
2023/05/29 08:00:08;;;;;;;2.72;2.53;;;20.20;65.90;;;;;;5014146;28;20234;-68
2023/05/29 08:02:36;;;;;;;2.88;2.67;;;20.20;65.80;;;;;;5010592;28;20244;-67
2023/05/29 08:05:27;;;;;;;2.90;2.70;;;20.20;65.90;;;;;;5009232;28;20327;-67
2023/05/29 08:07:53;;;;;;;2.83;2.63;;;20.30;65.80;;;;;;5013676;28;20212;-65
2023/05/29 08:10:19;;;;;;;3.00;2.70;;;20.30;65.70;;;;;;5013831;28;20188;-68
2023/05/29 08:12:46;;;;;;;3.22;2.92;;;20.40;65.50;;;;;;4997180;28;20172;-67
2023/05/29 08:15:12;;;;;;;3.40;3.03;;;20.40;65.50;;;;;;5013673;28;20188;-68
2023/05/29 08:17:38;;;;;;;3.97;2.83;;;20.40;65.50;;;;;;4997638;28;20219;-67
2023/05/29 08:20:05;;;;;;;2.90;2.70;;;20.40;65.20;;;;;;5005821;28;20184;-67
2023/05/29 08:22:33;;;;;;;3.33;3.03;;;20.40;65.50;;;;;;4997194;28;20188;-68
2023/05/29 08:25:00;;;;;;;3.30;2.67;;;20.50;65.40;;;;;;4996568;28;20207;-68
2023/05/29 08:27:25;;;;;;;2.60;2.40;;;20.40;65.30;;;;;;4993769;28;20212;-68
2023/05/29 08:29:51;;;;;;;2.67;2.45;;;20.50;65.50;;;;;;4987542;28;20199;-68
2023/05/29 08:32:17;;;;;;;2.58;2.38;;;20.50;65.60;;;;;;4992068;28;20195;-67
2023/05/29 08:34:45;;;;;;;3.53;2.45;;;20.50;65.40;;;;;;4993996;28;20283;-67
2023/05/29 08:37:12;;;;;;;2.90;2.70;;;20.50;65.50;;;;;;4996826;28;20216;-67
2023/05/29 08:39:37;;;;;;;3.00;2.70;;;20.50;65.40;;;;;;5013408;28;20187;-68
2023/05/29 08:42:33;;;;;;;3.85;2.92;;;20.50;65.40;;;;;;5011810;28;20184;-68
2023/05/29 08:45:03;;;;;;;2.60;2.40;;;20.60;65.50;;;;;;4997149;28;20188;-68
2023/05/29 08:47:33;;;;;;;2.97;2.67;;;20.60;65.50;;;;;;4996728;28;20214;-68
2023/05/29 08:50:02;;;;;;;2.58;2.38;;;20.60;65.50;;;;;;5010726;28;20191;-68
2023/05/29 08:52:35;;;;;;;2.55;2.35;;;20.60;65.50;;;;;;5001541;28;20221;-68
2023/05/29 08:55:01;;;;;;;2.88;2.67;;;20.60;65.50;;;;;;5012229;28;20257;-67
2023/05/29 08:57:29;;;;;;;2.85;2.50;;;20.60;65.60;;;;;;4996488;28;20238;-67
2023/05/29 08:59:56;;;;;;;2.72;2.45;;;20.70;65.70;;;;;;4996780;28;20274;-66
2023/05/29 09:02:22;;;;;;;2.90;2.70;;;20.70;65.50;;;;;;5029423;28;20196;-67
2023/05/29 09:04:56;;;;;;;2.92;2.60;;;20.70;65.50;;;;;;5013064;28;20176;-67
2023/05/29 09:07:22;;;;;;;3.00;2.70;;;20.70;65.50;;;;;;4996692;28;20208;-67
2023/05/29 09:09:48;;;;;;;2.80;2.60;;;20.70;65.40;;;;;;5004325;28;20215;-68
2023/05/29 09:12:16;;;;;;;2.95;2.75;;;20.70;65.50;;;;;;4992856;28;20189;-68
2023/05/29 09:14:44;;;;;;;2.53;2.30;;;20.70;65.40;;;;;;5008965;28;20185;-66
2023/05/29 09:17:12;;;;;;;3.10;2.80;;;20.70;65.40;;;;;;5011921;28;20226;-67
2023/05/29 09:19:42;;;;;;;2.58;2.38;;;20.70;65.10;;;;;;5004128;28;20184;-66
2023/05/29 09:22:14;;;;;;;2.70;2.50;;;20.80;65.20;;;;;;5028940;28;20185;-67
2023/05/29 09:24:43;;;;;;;3.38;3.08;;;20.70;65.20;;;;;;5020670;28;20176;-67
2023/05/29 09:27:12;;;;;;;3.13;2.50;;;20.70;65.40;;;;;;5012213;28;20212;-66
2023/05/29 09:29:43;;;;;;;3.13;2.83;;;20.70;65.40;;;;;;5012068;28;20179;-67
2023/05/29 09:32:11;;;;;;;2.58;2.38;;;20.70;65.60;;;;;;4992712;28;20189;-67
2023/05/29 09:34:39;;;;;;;2.75;2.55;;;20.80;65.60;;;;;;5008024;28;20205;-66
2023/05/29 09:37:10;;;;;;;2.80;2.60;;;20.80;65.80;;;;;;4995939;28;20239;-67
2023/05/29 09:39:47;;;;;;;3.17;2.60;;;20.80;65.80;;;;;;4995780;28;20196;-67
2023/05/29 09:42:14;;;;;;;3.90;2.78;;;20.80;65.80;;;;;;4996190;28;20179;-67
2023/05/29 09:44:41;;;;;;;2.95;2.67;;;20.70;65.70;;;;;;5012175;28;20184;-67
2023/05/29 09:47:07;;;;;;;3.05;2.47;;;20.80;65.80;;;;;;4995562;28;20212;-67
2023/05/29 09:49:33;;;;;;;3.20;2.88;;;20.70;65.70;;;;;;5028232;28;20183;-67
2023/05/29 09:52:00;;;;;;;3.10;2.60;;;20.80;65.80;;;;;;5011926;28;20203;-67
2023/05/29 09:54:30;;;;;;;3.08;2.70;;;20.80;65.60;;;;;;5011972;28;20180;-67
2023/05/29 09:56:58;;;;;;;3.13;2.60;;;20.80;65.80;;;;;;5011671;28;20227;-67
2023/05/29 09:59:25;;;;;;;2.65;2.40;;;20.80;65.70;;;;;;4992360;28;20192;-67
2023/05/29 10:02:04;;;;;;;3.20;2.83;;;20.80;65.60;;;;;;4992836;28;20196;-67
2023/05/29 10:04:34;;;;;;;2.90;2.33;;;20.80;65.80;;;;;;4995524;28;20210;-67
2023/05/29 10:07:17;;;;;;;2.67;2.47;;;20.80;65.80;;;;;;4995210;28;20216;-68
2023/05/29 10:09:50;;;;;;;3.05;2.75;;;20.80;65.80;;;;;;5003555;28;20199;-67
2023/05/29 10:12:23;;;;;;;3.00;2.70;;;20.80;65.80;;;;;;5004230;28;20192;-68
2023/05/29 10:14:58;;;;;;;2.85;2.58;;;20.80;65.80;;;;;;4992610;28;20189;-67
2023/05/29 10:17:32;;;;;;;2.70;2.50;;;20.80;65.80;;;;;;4995352;28;20302;-68
2023/05/29 10:20:02;;;;;;;3.20;2.90;;;20.80;65.80;;;;;;4994978;28;20180;-68
2023/05/29 10:22:31;;;;;;;3.00;2.70;;;20.80;65.80;;;;;;5011382;28;20208;-68
2023/05/29 10:24:59;;;;;;;2.60;2.40;;;20.80;65.80;;;;;;4995109;28;20192;-67
2023/05/29 10:27:26;;;;;;;3.47;3.17;;;20.80;65.80;;;;;;5027819;28;20295;-67
2023/05/29 10:30:12;;;;;;;3.55;2.92;;;20.80;65.90;;;;;;4994677;28;20211;-67
2023/05/29 10:33:18;;;;;;;4.05;2.75;;;20.80;65.80;;;;;;5011032;28;20203;-66
2023/05/29 10:36:00;;;;;;;3.20;2.90;;;20.90;66.00;;;;;;5008201;28;20196;-67
2023/05/29 10:38:26;;;;;;;3.42;2.50;;;20.80;66.00;;;;;;5011072;28;20212;-68
2023/05/29 10:40:52;;;;;;;2.70;2.50;;;20.90;66.20;;;;;;5011070;28;20648;-68
2023/05/29 10:43:33;;;;;;;2.85;2.65;;;20.90;66.10;;;;;;4994793;28;20184;-67
2023/05/29 10:46:03;;;;;;;2.80;2.60;;;20.80;65.80;;;;;;4994630;28;20274;-67
2023/05/29 10:48:40;;;;;;;2.92;2.63;;;20.90;65.90;;;;;;5010979;28;20713;-68
2023/05/29 10:51:08;;;;;;;2.95;2.75;;;20.80;65.80;;;;;;4994605;28;20192;-66
2023/05/29 10:53:39;;;;;;;2.85;2.60;;;20.90;65.90;;;;;;5021161;28;20193;-68
2023/05/29 10:56:09;;;;;;;3.03;2.83;;;20.90;66.10;;;;;;5002106;28;20216;-68
2023/05/29 10:58:34;;;;;;;3.10;2.53;;;20.90;66.00;;;;;;4991136;28;20188;-68
2023/05/29 11:01:00;;;;;;;2.90;2.60;;;20.90;66.00;;;;;;4992650;28;20575;-68
2023/05/29 11:03:36;;;;;;;2.70;2.50;;;20.90;66.10;;;;;;4994622;28;20187;-68
2023/05/29 11:06:17;;;;;;;3.35;3.05;;;20.90;66.10;;;;;;4997399;28;20200;-68
2023/05/29 11:08:47;;;;;;;3.05;2.83;;;20.90;65.90;;;;;;4998755;28;20184;-68
2023/05/29 11:11:38;;;;;;;3.00;2.75;;;20.90;65.90;;;;;;4997949;28;20701;-68
2023/05/29 11:14:06;;;;;;;2.75;2.55;;;20.90;65.90;;;;;;4998432;28;20287;-68
2023/05/29 11:16:32;;;;;;;2.60;2.40;;;20.90;66.00;;;;;;4998573;28;20235;-68
2023/05/29 11:19:07;;;;;;;2.70;2.50;;;20.90;65.90;;;;;;4998343;28;20203;-68
2023/05/29 11:21:51;;;;;;;3.38;3.08;;;20.90;65.90;;;;;;5014741;28;20194;-67
2023/05/29 11:24:29;;;;;;;2.95;2.60;;;20.90;66.10;;;;;;4998333;28;20191;-67
2023/05/29 11:26:58;;;;;;;3.15;2.88;;;20.90;65.90;;;;;;5014760;28;20259;-68
2023/05/29 11:29:29;;;;;;;2.90;2.70;;;20.90;65.90;;;;;;4994721;28;20189;-68
2023/05/29 11:32:07;;;;;;;2.80;2.60;;;20.90;66.00;;;;;;5003796;28;20211;-68
2023/05/29 11:34:34;;;;;;;3.20;2.90;;;20.90;65.90;;;;;;4994937;28;20208;-67
2023/05/29 11:37:01;;;;;;;3.28;2.97;;;20.90;65.70;;;;;;4995691;28;20211;-67
2023/05/29 11:39:28;;;;;;;2.70;2.50;;;20.90;65.60;;;;;;4994469;28;20185;-67
2023/05/29 11:41:55;;;;;;;2.65;2.45;;;21.00;65.60;;;;;;4995064;28;20177;-66
2023/05/29 11:44:25;;;;;;;2.72;2.53;;;20.90;65.50;;;;;;4994587;28;20191;-65
2023/05/29 11:47:07;;;;;;;2.90;2.70;;;21.00;65.70;;;;;;5010531;28;20253;-68
2023/05/29 11:49:36;;;;;;;2.95;2.70;;;21.00;65.50;;;;;;5013969;28;20648;-67
2023/05/29 11:52:22;;;;;;;2.65;2.45;;;21.00;65.60;;;;;;4997564;28;20663;-67
2023/05/29 11:54:49;;;;;;;3.03;2.72;;;21.00;65.70;;;;;;5006386;28;20283;-67
2023/05/29 11:57:20;;;;;;;2.50;2.30;;;21.00;65.70;;;;;;5030049;28;20215;-67
2023/05/29 11:59:48;;;;;;;2.65;2.45;;;21.00;65.50;;;;;;5014078;28;20231;-67
2023/05/29 12:02:14;;;;;;;2.65;2.45;;;21.00;65.20;;;;;;5014033;28;20188;-67
2023/05/29 12:04:40;;;;;;;3.20;2.90;;;21.00;65.60;;;;;;5013785;28;20546;-67
2023/05/29 12:07:19;;;;;;;3.55;2.55;;;21.00;65.50;;;;;;5013697;28;20223;-67
2023/05/29 12:09:45;;;;;;;3.40;2.70;;;21.00;65.30;;;;;;4994035;28;20196;-67
2023/05/29 12:12:10;;;;;;;2.42;2.22;;;21.00;65.40;;;;;;4996185;28;20228;-67
2023/05/29 12:14:36;;;;;;;3.15;2.85;;;21.00;65.70;;;;;;5013592;28;20311;-66
2023/05/29 12:17:02;;;;;;;2.65;2.45;;;21.00;65.10;;;;;;5013349;28;20314;-68
2023/05/29 12:19:28;;;;;;;2.85;2.53;;;21.00;65.30;;;;;;5013424;28;20184;-67
2023/05/29 12:21:54;;;;;;;2.80;2.60;;;21.00;65.30;;;;;;5013539;28;20211;-67
2023/05/29 12:24:19;;;;;;;2.53;2.33;;;21.00;65.20;;;;;;4994243;28;20304;-67
2023/05/29 12:26:47;;;;;;;2.88;2.65;;;21.00;65.30;;;;;;4996917;28;20223;-67
2023/05/29 12:29:13;;;;;;;2.22;2.10;;;21.00;65.20;;;;;;4996250;28;20200;-67
2023/05/29 12:31:39;;;;;;;2.83;2.63;;;21.00;65.10;;;;;;5013240;28;20196;-68
2023/05/29 12:34:12;;;;;;;3.10;2.80;;;21.00;65.30;;;;;;4995188;28;20279;-67
2023/05/29 12:36:42;;;;;;;3.55;3.13;;;21.00;65.20;;;;;;5013126;28;20223;-67
2023/05/29 12:39:09;;;;;;;3.28;2.47;;;21.00;65.50;;;;;;5012971;28;20191;-67
2023/05/29 12:41:37;;;;;;;2.90;2.60;;;21.00;65.50;;;;;;4996932;28;20180;-68
2023/05/29 12:44:07;;;;;;;2.70;2.50;;;21.00;65.60;;;;;;4994663;28;20192;-68
2023/05/29 12:46:57;;;;;;;2.47;2.28;;;21.00;65.20;;;;;;4996855;28;20584;-67
2023/05/29 12:49:25;;;;;;;2.90;2.70;;;21.00;65.00;;;;;;5012940;28;20192;-68
2023/05/29 12:51:52;;;;;;;3.13;2.83;;;21.00;65.20;;;;;;4993495;28;20200;-68
2023/05/29 12:54:18;;;;;;;2.88;2.67;;;21.00;65.00;;;;;;4996591;28;20219;-68
2023/05/29 12:56:46;;;;;;;2.40;2.20;;;21.00;65.00;;;;;;5012621;28;20215;-67